CheckWX is a tool to help pilots better visualize weather data.  It is not intended as a substitute for an official pre-flight weather briefing.

16:10:05 UTC

14Y METAR
Todd Field Airport
Long Prairie, Minnesota, USA
Current

1 hour ago

K14Y 221459Z AUTO 02007KT 10SM CLR 19/12 A3029 RMK AO2
Observed
Jul-22 @ 14:59 UTC
Wind
  • 020° at 7 KTS
Visibility
10 SM
Flight Rules
VFR
Cloud Levels
  • Clear skies
Temperature
19°C / 66°F
Dewpoint
12°C / 54°F
Humidity
64%
Altimeter
30.29" Hg
Pressure
1025.72 hPa
Previous

2 hours ago

K14Y 221359Z AUTO 35004KT 10SM CLR 17/12 A3029 RMK AO2
Observed
Jul-22 @ 13:59 UTC
Wind
  • 350° at 4 KTS
Visibility
10 SM
Flight Rules
VFR
Cloud Levels
  • Clear skies
Temperature
17°C / 63°F
Dewpoint
12°C / 54°F
Humidity
73%
Altimeter
30.29" Hg
Pressure
1025.72 hPa
Previous

3 hours ago

K14Y 221259Z AUTO 00000KT 10SM CLR 15/11 A3029 RMK AO2
Observed
Jul-22 @ 12:59 UTC
Visibility
10 SM
Flight Rules
VFR
Cloud Levels
  • Clear skies
Temperature
15°C / 59°F
Dewpoint
11°C / 52°F
Humidity
77%
Altimeter
30.29" Hg
Pressure
1025.72 hPa